sensor_id;sensor_type;location;lat;lon;timestamp;temperature;humidity
16247;DHT22;8231;50.866;7.944;2023-09-19T00:00:21;15.30;99.90
16247;DHT22;8231;50.866;7.944;2023-09-19T00:02:52;15.30;99.90
16247;DHT22;8231;50.866;7.944;2023-09-19T00:05:21;15.30;99.90
16247;DHT22;8231;50.866;7.944;2023-09-19T00:07:51;15.20;99.90
16247;DHT22;8231;50.866;7.944;2023-09-19T00:10:22;15.30;99.90
16247;DHT22;8231;50.866;7.944;2023-09-19T00:12:51;15.10;99.90
16247;DHT22;8231;50.866;7.944;2023-09-19T00:15:22;15.30;99.90
16247;DHT22;8231;50.866;7.944;2023-09-19T00:17:51;15.00;99.90
16247;DHT22;8231;50.866;7.944;2023-09-19T00:20:20;15.00;99.90
16247;DHT22;8231;50.866;7.944;2023-09-19T00:22:50;15.10;99.90
16247;DHT22;8231;50.866;7.944;2023-09-19T00:25:22;15.00;99.90
16247;DHT22;8231;50.866;7.944;2023-09-19T00:27:50;15.00;99.90
16247;DHT22;8231;50.866;7.944;2023-09-19T00:30:19;15.00;99.90
16247;DHT22;8231;50.866;7.944;2023-09-19T00:32:50;15.00;99.90
16247;DHT22;8231;50.866;7.944;2023-09-19T00:35:21;15.00;99.90
16247;DHT22;8231;50.866;7.944;2023-09-19T00:37:50;14.90;99.90
16247;DHT22;8231;50.866;7.944;2023-09-19T00:40:19;15.00;99.90
16247;DHT22;8231;50.866;7.944;2023-09-19T00:42:50;14.90;99.90
16247;DHT22;8231;50.866;7.944;2023-09-19T00:45:18;14.80;99.90
16247;DHT22;8231;50.866;7.944;2023-09-19T00:47:48;14.70;99.90
16247;DHT22;8231;50.866;7.944;2023-09-19T00:50:19;14.70;99.90
16247;DHT22;8231;50.866;7.944;2023-09-19T00:52:50;14.60;99.90
16247;DHT22;8231;50.866;7.944;2023-09-19T00:55:18;14.70;99.90
16247;DHT22;8231;50.866;7.944;2023-09-19T00:57:49;14.50;99.90
16247;DHT22;8231;50.866;7.944;2023-09-19T01:00:18;14.50;99.90
16247;DHT22;8231;50.866;7.944;2023-09-19T01:02:48;14.40;99.90
16247;DHT22;8231;50.866;7.944;2023-09-19T01:05:16;14.50;99.90
16247;DHT22;8231;50.866;7.944;2023-09-19T01:07:45;14.40;99.90
16247;DHT22;8231;50.866;7.944;2023-09-19T01:10:18;14.30;99.90
16247;DHT22;8231;50.866;7.944;2023-09-19T01:12:55;14.20;99.90
16247;DHT22;8231;50.866;7.944;2023-09-19T01:15:32;14.20;99.90
16247;DHT22;8231;50.866;7.944;2023-09-19T01:18:14;14.10;99.90
16247;DHT22;8231;50.866;7.944;2023-09-19T01:20:53;14.10;99.90
16247;DHT22;8231;50.866;7.944;2023-09-19T01:23:31;14.10;99.90
16247;DHT22;8231;50.866;7.944;2023-09-19T01:26:37;14.00;99.90
16247;DHT22;8231;50.866;7.944;2023-09-19T01:29:23;13.90;99.90
16247;DHT22;8231;50.866;7.944;2023-09-19T01:32:03;13.90;99.90
16247;DHT22;8231;50.866;7.944;2023-09-19T01:34:45;13.90;99.90
16247;DHT22;8231;50.866;7.944;2023-09-19T01:37:15;13.80;99.90
16247;DHT22;8231;50.866;7.944;2023-09-19T01:39:47;13.80;99.90
16247;DHT22;8231;50.866;7.944;2023-09-19T01:42:28;13.70;99.90
16247;DHT22;8231;50.866;7.944;2023-09-19T01:45:03;13.70;99.90
16247;DHT22;8231;50.866;7.944;2023-09-19T01:47:41;13.70;99.90
16247;DHT22;8231;50.866;7.944;2023-09-19T01:50:17;13.70;99.90
16247;DHT22;8231;50.866;7.944;2023-09-19T01:52:54;13.70;99.90
16247;DHT22;8231;50.866;7.944;2023-09-19T01:55:27;13.90;99.90
16247;DHT22;8231;50.866;7.944;2023-09-19T01:58:04;13.70;99.90
16247;DHT22;8231;50.866;7.944;2023-09-19T02:00:36;13.80;99.90
16247;DHT22;8231;50.866;7.944;2023-09-19T02:03:07;13.80;99.90
16247;DHT22;8231;50.866;7.944;2023-09-19T02:05:37;13.90;99.90
16247;DHT22;8231;50.866;7.944;2023-09-19T02:08:06;13.90;99.90
16247;DHT22;8231;50.866;7.944;2023-09-19T02:10:35;14.00;99.90
16247;DHT22;8231;50.866;7.944;2023-09-19T02:13:03;14.00;99.90
16247;DHT22;8231;50.866;7.944;2023-09-19T02:15:32;14.00;99.90
16247;DHT22;8231;50.866;7.944;2023-09-19T02:18:01;14.00;99.90
16247;DHT22;8231;50.866;7.944;2023-09-19T02:20:31;14.10;99.90
16247;DHT22;8231;50.866;7.944;2023-09-19T02:22:59;14.00;99.90
16247;DHT22;8231;50.866;7.944;2023-09-19T02:25:29;14.10;99.90
16247;DHT22;8231;50.866;7.944;2023-09-19T02:27:58;14.20;99.90
16247;DHT22;8231;50.866;7.944;2023-09-19T02:30:30;14.10;99.90
16247;DHT22;8231;50.866;7.944;2023-09-19T02:32:58;14.10;99.90
16247;DHT22;8231;50.866;7.944;2023-09-19T02:35:28;14.10;99.90
16247;DHT22;8231;50.866;7.944;2023-09-19T02:38:02;14.10;99.90
16247;DHT22;8231;50.866;7.944;2023-09-19T02:40:33;14.10;99.90
16247;DHT22;8231;50.866;7.944;2023-09-19T02:43:04;14.20;99.90
16247;DHT22;8231;50.866;7.944;2023-09-19T02:45:32;14.10;99.90
16247;DHT22;8231;50.866;7.944;2023-09-19T02:48:01;14.50;99.90
16247;DHT22;8231;50.866;7.944;2023-09-19T02:50:31;14.20;99.90
16247;DHT22;8231;50.866;7.944;2023-09-19T02:53:02;14.20;99.90
16247;DHT22;8231;50.866;7.944;2023-09-19T02:55:31;14.20;99.90
16247;DHT22;8231;50.866;7.944;2023-09-19T02:58:01;14.20;99.90
16247;DHT22;8231;50.866;7.944;2023-09-19T03:00:30;14.20;99.90
16247;DHT22;8231;50.866;7.944;2023-09-19T03:02:58;14.20;99.90
16247;DHT22;8231;50.866;7.944;2023-09-19T03:05:27;14.20;99.90
16247;DHT22;8231;50.866;7.944;2023-09-19T03:07:58;14.20;99.90
16247;DHT22;8231;50.866;7.944;2023-09-19T03:10:30;14.20;99.90
16247;DHT22;8231;50.866;7.944;2023-09-19T03:12:58;14.20;99.90
16247;DHT22;8231;50.866;7.944;2023-09-19T03:15:27;14.20;99.90
16247;DHT22;8231;50.866;7.944;2023-09-19T03:17:56;14.30;99.90
16247;DHT22;8231;50.866;7.944;2023-09-19T03:20:25;14.30;99.90
16247;DHT22;8231;50.866;7.944;2023-09-19T03:22:54;14.30;99.90
16247;DHT22;8231;50.866;7.944;2023-09-19T03:25:24;14.30;99.90
16247;DHT22;8231;50.866;7.944;2023-09-19T03:27:56;14.20;99.90
16247;DHT22;8231;50.866;7.944;2023-09-19T03:30:25;14.20;99.90
16247;DHT22;8231;50.866;7.944;2023-09-19T03:32:54;14.20;99.90
16247;DHT22;8231;50.866;7.944;2023-09-19T03:35:22;14.20;99.90
16247;DHT22;8231;50.866;7.944;2023-09-19T03:37:50;14.20;99.90
16247;DHT22;8231;50.866;7.944;2023-09-19T03:40:19;14.20;99.90
16247;DHT22;8231;50.866;7.944;2023-09-19T03:42:49;14.10;99.90
16247;DHT22;8231;50.866;7.944;2023-09-19T03:45:19;14.00;99.90
16247;DHT22;8231;50.866;7.944;2023-09-19T03:47:50;14.00;99.90
16247;DHT22;8231;50.866;7.944;2023-09-19T03:50:20;14.00;99.90
16247;DHT22;8231;50.866;7.944;2023-09-19T03:52:50;13.90;99.90
16247;DHT22;8231;50.866;7.944;2023-09-19T03:55:18;13.90;99.90
16247;DHT22;8231;50.866;7.944;2023-09-19T03:57:48;13.90;99.90
16247;DHT22;8231;50.866;7.944;2023-09-19T04:00:18;13.90;99.90
16247;DHT22;8231;50.866;7.944;2023-09-19T04:02:48;13.90;99.90
16247;DHT22;8231;50.866;7.944;2023-09-19T04:05:17;13.90;99.90
16247;DHT22;8231;50.866;7.944;2023-09-19T04:07:45;13.90;99.90
16247;DHT22;8231;50.866;7.944;2023-09-19T04:10:14;13.80;99.90
16247;DHT22;8231;50.866;7.944;2023-09-19T04:12:50;13.90;99.90
16247;DHT22;8231;50.866;7.944;2023-09-19T04:15:20;13.80;99.90
16247;DHT22;8231;50.866;7.944;2023-09-19T04:17:51;13.70;99.90
16247;DHT22;8231;50.866;7.944;2023-09-19T04:20:20;13.70;99.90
16247;DHT22;8231;50.866;7.944;2023-09-19T04:22:50;13.70;99.90
16247;DHT22;8231;50.866;7.944;2023-09-19T04:25:18;13.80;99.90
16247;DHT22;8231;50.866;7.944;2023-09-19T04:27:47;13.60;99.90
16247;DHT22;8231;50.866;7.944;2023-09-19T04:30:16;13.60;99.90
16247;DHT22;8231;50.866;7.944;2023-09-19T04:32:45;13.60;99.90
16247;DHT22;8231;50.866;7.944;2023-09-19T04:35:18;13.80;99.90
16247;DHT22;8231;50.866;7.944;2023-09-19T04:37:46;13.50;99.90
16247;DHT22;8231;50.866;7.944;2023-09-19T04:40:15;13.50;99.90
16247;DHT22;8231;50.866;7.944;2023-09-19T04:42:45;13.50;99.90
16247;DHT22;8231;50.866;7.944;2023-09-19T04:45:14;13.40;99.90
16247;DHT22;8231;50.866;7.944;2023-09-19T04:47:43;13.40;99.90
16247;DHT22;8231;50.866;7.944;2023-09-19T04:50:12;13.40;99.90
16247;DHT22;8231;50.866;7.944;2023-09-19T04:52:42;13.40;99.90
16247;DHT22;8231;50.866;7.944;2023-09-19T04:55:11;13.30;99.90
16247;DHT22;8231;50.866;7.944;2023-09-19T04:57:44;13.30;99.90
16247;DHT22;8231;50.866;7.944;2023-09-19T05:00:14;13.30;99.90
16247;DHT22;8231;50.866;7.944;2023-09-19T05:02:44;13.30;99.90
16247;DHT22;8231;50.866;7.944;2023-09-19T05:05:14;13.20;99.90
16247;DHT22;8231;50.866;7.944;2023-09-19T05:07:44;13.20;99.90
16247;DHT22;8231;50.866;7.944;2023-09-19T05:10:12;13.20;99.90
16247;DHT22;8231;50.866;7.944;2023-09-19T05:12:41;13.20;99.90
16247;DHT22;8231;50.866;7.944;2023-09-19T05:15:12;13.20;99.90
16247;DHT22;8231;50.866;7.944;2023-09-19T05:17:41;13.10;99.90
16247;DHT22;8231;50.866;7.944;2023-09-19T05:20:10;13.10;99.90
16247;DHT22;8231;50.866;7.944;2023-09-19T05:22:42;13.10;99.90
16247;DHT22;8231;50.866;7.944;2023-09-19T05:25:11;13.10;99.90
16247;DHT22;8231;50.866;7.944;2023-09-19T05:27:42;13.10;99.90
16247;DHT22;8231;50.866;7.944;2023-09-19T05:30:12;13.30;99.90
16247;DHT22;8231;50.866;7.944;2023-09-19T05:32:42;13.10;99.90
16247;DHT22;8231;50.866;7.944;2023-09-19T05:35:11;13.00;99.90
16247;DHT22;8231;50.866;7.944;2023-09-19T05:37:39;13.10;99.90
16247;DHT22;8231;50.866;7.944;2023-09-19T05:40:10;13.10;99.90
16247;DHT22;8231;50.866;7.944;2023-09-19T05:42:39;13.10;99.90
16247;DHT22;8231;50.866;7.944;2023-09-19T05:45:08;13.10;99.90
16247;DHT22;8231;50.866;7.944;2023-09-19T05:47:39;13.10;99.90
16247;DHT22;8231;50.866;7.944;2023-09-19T05:50:10;13.20;99.90
16247;DHT22;8231;50.866;7.944;2023-09-19T05:52:38;13.10;99.90
16247;DHT22;8231;50.866;7.944;2023-09-19T05:55:09;13.20;99.90
16247;DHT22;8231;50.866;7.944;2023-09-19T05:57:38;13.20;99.90
16247;DHT22;8231;50.866;7.944;2023-09-19T06:00:07;13.20;99.90
16247;DHT22;8231;50.866;7.944;2023-09-19T06:02:38;13.20;99.90
16247;DHT22;8231;50.866;7.944;2023-09-19T06:05:07;13.30;99.90
16247;DHT22;8231;50.866;7.944;2023-09-19T06:07:37;13.30;99.90
16247;DHT22;8231;50.866;7.944;2023-09-19T06:10:06;13.40;99.90
16247;DHT22;8231;50.866;7.944;2023-09-19T06:12:39;13.30;99.90
16247;DHT22;8231;50.866;7.944;2023-09-19T06:15:08;13.40;99.90
16247;DHT22;8231;50.866;7.944;2023-09-19T06:17:39;13.40;99.90
16247;DHT22;8231;50.866;7.944;2023-09-19T06:20:08;13.50;99.90
16247;DHT22;8231;50.866;7.944;2023-09-19T06:22:40;13.50;99.90
16247;DHT22;8231;50.866;7.944;2023-09-19T06:25:10;13.60;99.90
16247;DHT22;8231;50.866;7.944;2023-09-19T06:27:40;13.60;99.90
16247;DHT22;8231;50.866;7.944;2023-09-19T06:30:10;13.70;99.90
16247;DHT22;8231;50.866;7.944;2023-09-19T06:32:40;13.70;99.90
16247;DHT22;8231;50.866;7.944;2023-09-19T06:35:11;13.80;99.90
16247;DHT22;8231;50.866;7.944;2023-09-19T06:37:40;13.90;99.90
16247;DHT22;8231;50.866;7.944;2023-09-19T06:40:09;14.00;99.90
16247;DHT22;8231;50.866;7.944;2023-09-19T06:42:43;14.10;99.90
16247;DHT22;8231;50.866;7.944;2023-09-19T06:45:12;14.20;99.90
16247;DHT22;8231;50.866;7.944;2023-09-19T06:47:45;14.30;99.90
16247;DHT22;8231;50.866;7.944;2023-09-19T06:50:17;14.30;99.90
16247;DHT22;8231;50.866;7.944;2023-09-19T06:52:49;14.40;99.90
16247;DHT22;8231;50.866;7.944;2023-09-19T06:55:20;14.50;99.90
16247;DHT22;8231;50.866;7.944;2023-09-19T06:57:53;14.60;99.90
16247;DHT22;8231;50.866;7.944;2023-09-19T07:00:22;14.60;99.90
16247;DHT22;8231;50.866;7.944;2023-09-19T07:02:57;14.60;99.90
16247;DHT22;8231;50.866;7.944;2023-09-19T07:05:28;14.70;99.90
16247;DHT22;8231;50.866;7.944;2023-09-19T07:07:56;14.60;99.90
16247;DHT22;8231;50.866;7.944;2023-09-19T07:10:25;14.70;99.90
16247;DHT22;8231;50.866;7.944;2023-09-19T07:12:59;14.80;99.90
16247;DHT22;8231;50.866;7.944;2023-09-19T07:15:28;15.00;99.90
16247;DHT22;8231;50.866;7.944;2023-09-19T07:17:57;15.10;99.90
16247;DHT22;8231;50.866;7.944;2023-09-19T07:20:27;15.20;99.90
16247;DHT22;8231;50.866;7.944;2023-09-19T07:22:59;15.30;99.90
16247;DHT22;8231;50.866;7.944;2023-09-19T07:25:28;15.50;99.90
16247;DHT22;8231;50.866;7.944;2023-09-19T07:27:58;15.70;99.90
16247;DHT22;8231;50.866;7.944;2023-09-19T07:30:31;15.80;99.90
16247;DHT22;8231;50.866;7.944;2023-09-19T07:32:59;16.00;99.90
16247;DHT22;8231;50.866;7.944;2023-09-19T07:35:29;16.00;99.90
16247;DHT22;8231;50.866;7.944;2023-09-19T07:37:58;16.20;99.90
16247;DHT22;8231;50.866;7.944;2023-09-19T07:40:28;16.20;99.90
16247;DHT22;8231;50.866;7.944;2023-09-19T07:42:58;16.30;99.90
16247;DHT22;8231;50.866;7.944;2023-09-19T07:45:28;16.50;99.90
16247;DHT22;8231;50.866;7.944;2023-09-19T07:47:59;16.50;99.90
16247;DHT22;8231;50.866;7.944;2023-09-19T07:50:33;16.60;99.90
16247;DHT22;8231;50.866;7.944;2023-09-19T07:53:03;16.90;99.90
16247;DHT22;8231;50.866;7.944;2023-09-19T07:55:32;16.70;99.90
16247;DHT22;8231;50.866;7.944;2023-09-19T07:58:03;16.70;99.90
16247;DHT22;8231;50.866;7.944;2023-09-19T08:00:32;16.90;99.90
16247;DHT22;8231;50.866;7.944;2023-09-19T08:03:01;17.10;99.90
16247;DHT22;8231;50.866;7.944;2023-09-19T08:05:43;17.10;99.90
16247;DHT22;8231;50.866;7.944;2023-09-19T08:08:12;17.10;99.90
16247;DHT22;8231;50.866;7.944;2023-09-19T08:10:42;17.10;99.90
16247;DHT22;8231;50.866;7.944;2023-09-19T08:13:14;17.20;99.90
16247;DHT22;8231;50.866;7.944;2023-09-19T08:15:44;17.20;99.90
16247;DHT22;8231;50.866;7.944;2023-09-19T08:18:13;17.30;99.90
16247;DHT22;8231;50.866;7.944;2023-09-19T08:20:42;17.50;99.90
16247;DHT22;8231;50.866;7.944;2023-09-19T08:23:13;17.80;99.90
16247;DHT22;8231;50.866;7.944;2023-09-19T08:25:41;17.80;99.90
16247;DHT22;8231;50.866;7.944;2023-09-19T08:28:09;17.90;99.90
16247;DHT22;8231;50.866;7.944;2023-09-19T08:30:47;18.00;99.90
16247;DHT22;8231;50.866;7.944;2023-09-19T08:33:15;17.90;99.90
16247;DHT22;8231;50.866;7.944;2023-09-19T08:35:43;17.90;99.90
16247;DHT22;8231;50.866;7.944;2023-09-19T08:38:13;18.10;99.90
16247;DHT22;8231;50.866;7.944;2023-09-19T08:40:42;18.00;99.90
16247;DHT22;8231;50.866;7.944;2023-09-19T08:43:10;18.10;99.90
16247;DHT22;8231;50.866;7.944;2023-09-19T08:45:39;18.10;99.90
16247;DHT22;8231;50.866;7.944;2023-09-19T08:48:17;18.10;99.90
16247;DHT22;8231;50.866;7.944;2023-09-19T08:50:51;18.20;99.90
16247;DHT22;8231;50.866;7.944;2023-09-19T08:53:25;18.20;99.90
16247;DHT22;8231;50.866;7.944;2023-09-19T08:55:55;18.10;99.90
16247;DHT22;8231;50.866;7.944;2023-09-19T08:58:27;18.00;99.90
16247;DHT22;8231;50.866;7.944;2023-09-19T09:01:00;18.00;99.90
16247;DHT22;8231;50.866;7.944;2023-09-19T09:03:33;17.90;99.90
16247;DHT22;8231;50.866;7.944;2023-09-19T09:06:02;18.30;99.90
16247;DHT22;8231;50.866;7.944;2023-09-19T09:08:31;18.20;99.90
16247;DHT22;8231;50.866;7.944;2023-09-19T09:10:59;18.40;99.90
16247;DHT22;8231;50.866;7.944;2023-09-19T09:13:28;18.60;99.90
16247;DHT22;8231;50.866;7.944;2023-09-19T09:15:57;18.60;99.90
16247;DHT22;8231;50.866;7.944;2023-09-19T09:18:26;18.60;99.90
16247;DHT22;8231;50.866;7.944;2023-09-19T09:20:58;18.70;99.90
16247;DHT22;8231;50.866;7.944;2023-09-19T09:23:32;18.70;99.90
16247;DHT22;8231;50.866;7.944;2023-09-19T09:26:00;18.70;99.90
16247;DHT22;8231;50.866;7.944;2023-09-19T09:28:35;18.90;99.90
16247;DHT22;8231;50.866;7.944;2023-09-19T09:31:05;19.00;99.90
16247;DHT22;8231;50.866;7.944;2023-09-19T09:33:36;19.00;99.90
16247;DHT22;8231;50.866;7.944;2023-09-19T09:36:10;19.00;99.90
16247;DHT22;8231;50.866;7.944;2023-09-19T09:38:44;19.00;99.90
16247;DHT22;8231;50.866;7.944;2023-09-19T09:41:12;19.10;99.90
16247;DHT22;8231;50.866;7.944;2023-09-19T09:43:54;19.10;99.90
16247;DHT22;8231;50.866;7.944;2023-09-19T09:46:22;19.30;99.90
16247;DHT22;8231;50.866;7.944;2023-09-19T09:49:26;19.50;99.90
16247;DHT22;8231;50.866;7.944;2023-09-19T09:52:03;19.50;99.90
16247;DHT22;8231;50.866;7.944;2023-09-19T09:54:58;19.60;99.90
16247;DHT22;8231;50.866;7.944;2023-09-19T09:57:27;19.70;99.90
16247;DHT22;8231;50.866;7.944;2023-09-19T09:59:58;19.80;99.90
16247;DHT22;8231;50.866;7.944;2023-09-19T10:02:44;19.90;99.90
16247;DHT22;8231;50.866;7.944;2023-09-19T10:05:16;19.80;99.90
16247;DHT22;8231;50.866;7.944;2023-09-19T10:08:10;20.00;99.90
16247;DHT22;8231;50.866;7.944;2023-09-19T10:10:40;20.10;99.90
16247;DHT22;8231;50.866;7.944;2023-09-19T10:13:21;20.10;99.90
16247;DHT22;8231;50.866;7.944;2023-09-19T10:15:51;20.00;99.90
16247;DHT22;8231;50.866;7.944;2023-09-19T10:18:24;20.20;99.90
16247;DHT22;8231;50.866;7.944;2023-09-19T10:20:56;20.30;99.90
16247;DHT22;8231;50.866;7.944;2023-09-19T10:23:28;20.40;99.90
16247;DHT22;8231;50.866;7.944;2023-09-19T10:26:01;20.60;99.90
16247;DHT22;8231;50.866;7.944;2023-09-19T10:28:33;20.70;99.90
16247;DHT22;8231;50.866;7.944;2023-09-19T10:31:03;20.70;99.90
16247;DHT22;8231;50.866;7.944;2023-09-19T10:33:36;20.60;99.90
16247;DHT22;8231;50.866;7.944;2023-09-19T10:36:05;20.60;99.90
16247;DHT22;8231;50.866;7.944;2023-09-19T10:38:37;20.70;99.90
16247;DHT22;8231;50.866;7.944;2023-09-19T10:41:08;20.80;99.90
16247;DHT22;8231;50.866;7.944;2023-09-19T10:43:39;20.60;99.90
16247;DHT22;8231;50.866;7.944;2023-09-19T10:46:11;20.70;99.90
16247;DHT22;8231;50.866;7.944;2023-09-19T10:48:41;20.80;99.90
16247;DHT22;8231;50.866;7.944;2023-09-19T10:51:14;20.90;99.90
16247;DHT22;8231;50.866;7.944;2023-09-19T10:53:48;20.80;99.90
16247;DHT22;8231;50.866;7.944;2023-09-19T10:56:21;20.90;99.90
16247;DHT22;8231;50.866;7.944;2023-09-19T10:59:06;20.90;99.90
16247;DHT22;8231;50.866;7.944;2023-09-19T11:01:44;21.00;99.90
16247;DHT22;8231;50.866;7.944;2023-09-19T11:04:24;21.00;99.90
16247;DHT22;8231;50.866;7.944;2023-09-19T11:07:01;21.00;99.90
16247;DHT22;8231;50.866;7.944;2023-09-19T11:09:45;21.10;99.90
16247;DHT22;8231;50.866;7.944;2023-09-19T11:18:51;21.60;99.90
16247;DHT22;8231;50.866;7.944;2023-09-19T11:21:41;21.60;99.90
16247;DHT22;8231;50.866;7.944;2023-09-19T11:24:27;21.80;99.90
16247;DHT22;8231;50.866;7.944;2023-09-19T11:27:13;21.50;99.90
16247;DHT22;8231;50.866;7.944;2023-09-19T11:29:44;21.50;99.90
16247;DHT22;8231;50.866;7.944;2023-09-19T11:32:12;21.50;99.90
16247;DHT22;8231;50.866;7.944;2023-09-19T11:34:48;21.70;99.90
16247;DHT22;8231;50.866;7.944;2023-09-19T11:40:38;22.20;99.90
16247;DHT22;8231;50.866;7.944;2023-09-19T11:43:32;22.00;99.90
16247;DHT22;8231;50.866;7.944;2023-09-19T11:46:05;21.90;99.90
16247;DHT22;8231;50.866;7.944;2023-09-19T11:48:34;21.70;99.90
16247;DHT22;8231;50.866;7.944;2023-09-19T11:51:12;21.60;99.90
16247;DHT22;8231;50.866;7.944;2023-09-19T11:53:50;21.70;99.90
16247;DHT22;8231;50.866;7.944;2023-09-19T11:56:19;21.60;99.90
16247;DHT22;8231;50.866;7.944;2023-09-19T11:58:54;21.50;99.90
16247;DHT22;8231;50.866;7.944;2023-09-19T12:01:25;21.40;99.90
16247;DHT22;8231;50.866;7.944;2023-09-19T12:03:57;21.40;99.90
16247;DHT22;8231;50.866;7.944;2023-09-19T12:06:27;21.70;99.90
16247;DHT22;8231;50.866;7.944;2023-09-19T12:08:56;21.80;99.90
16247;DHT22;8231;50.866;7.944;2023-09-19T12:11:32;21.70;99.90
16247;DHT22;8231;50.866;7.944;2023-09-19T12:14:03;21.70;99.90
16247;DHT22;8231;50.866;7.944;2023-09-19T12:16:31;21.80;99.90
16247;DHT22;8231;50.866;7.944;2023-09-19T12:19:19;21.80;99.90
16247;DHT22;8231;50.866;7.944;2023-09-19T12:21:56;21.90;99.90
16247;DHT22;8231;50.866;7.944;2023-09-19T12:24:27;22.30;99.90
16247;DHT22;8231;50.866;7.944;2023-09-19T12:27:03;22.50;99.90
16247;DHT22;8231;50.866;7.944;2023-09-19T12:29:42;22.50;99.90
16247;DHT22;8231;50.866;7.944;2023-09-19T12:32:11;22.20;99.90
16247;DHT22;8231;50.866;7.944;2023-09-19T12:34:39;21.90;99.90
16247;DHT22;8231;50.866;7.944;2023-09-19T12:37:11;21.80;99.90
16247;DHT22;8231;50.866;7.944;2023-09-19T12:39:40;22.10;99.90
16247;DHT22;8231;50.866;7.944;2023-09-19T12:42:10;22.20;99.90
16247;DHT22;8231;50.866;7.944;2023-09-19T12:44:44;22.90;99.90
16247;DHT22;8231;50.866;7.944;2023-09-19T12:47:15;24.10;99.80
16247;DHT22;8231;50.866;7.944;2023-09-19T12:50:06;24.20;97.20
16247;DHT22;8231;50.866;7.944;2023-09-19T12:52:42;23.70;97.90
16247;DHT22;8231;50.866;7.944;2023-09-19T12:55:22;23.50;97.90
16247;DHT22;8231;50.866;7.944;2023-09-19T12:58:07;24.30;96.40
16247;DHT22;8231;50.866;7.944;2023-09-19T13:00:39;25.00;94.10
16247;DHT22;8231;50.866;7.944;2023-09-19T13:03:15;24.60;95.80
16247;DHT22;8231;50.866;7.944;2023-09-19T13:05:50;24.60;95.40
16247;DHT22;8231;50.866;7.944;2023-09-19T13:08:23;24.80;93.70
16247;DHT22;8231;50.866;7.944;2023-09-19T13:11:07;25.30;94.80
16247;DHT22;8231;50.866;7.944;2023-09-19T13:13:38;27.20;90.20
16247;DHT22;8231;50.866;7.944;2023-09-19T13:16:08;28.80;85.30
16247;DHT22;8231;50.866;7.944;2023-09-19T13:18:45;30.20;76.80
16247;DHT22;8231;50.866;7.944;2023-09-19T13:21:15;31.10;70.50
16247;DHT22;8231;50.866;7.944;2023-09-19T13:23:50;31.00;68.70
16247;DHT22;8231;50.866;7.944;2023-09-19T13:26:19;31.40;64.90
16247;DHT22;8231;50.866;7.944;2023-09-19T13:28:47;32.00;65.50
16247;DHT22;8231;50.866;7.944;2023-09-19T13:31:18;32.40;64.20
16247;DHT22;8231;50.866;7.944;2023-09-19T13:33:47;32.30;61.00
16247;DHT22;8231;50.866;7.944;2023-09-19T13:36:17;32.10;61.30
16247;DHT22;8231;50.866;7.944;2023-09-19T13:38:46;31.50;60.50
16247;DHT22;8231;50.866;7.944;2023-09-19T13:41:16;30.70;62.70
16247;DHT22;8231;50.866;7.944;2023-09-19T13:43:44;30.10;63.70
16247;DHT22;8231;50.866;7.944;2023-09-19T13:46:15;29.30;66.80
16247;DHT22;8231;50.866;7.944;2023-09-19T13:48:46;28.50;67.60
16247;DHT22;8231;50.866;7.944;2023-09-19T13:51:15;27.70;68.40
16247;DHT22;8231;50.866;7.944;2023-09-19T13:53:46;26.90;70.50
16247;DHT22;8231;50.866;7.944;2023-09-19T13:56:14;26.40;71.90
16247;DHT22;8231;50.866;7.944;2023-09-19T13:58:42;25.80;73.20
16247;DHT22;8231;50.866;7.944;2023-09-19T14:01:11;25.50;74.70
16247;DHT22;8231;50.866;7.944;2023-09-19T14:03:40;24.90;73.00
16247;DHT22;8231;50.866;7.944;2023-09-19T14:06:14;24.30;75.80
16247;DHT22;8231;50.866;7.944;2023-09-19T14:08:43;24.10;77.80
16247;DHT22;8231;50.866;7.944;2023-09-19T14:11:12;23.80;77.30
16247;DHT22;8231;50.866;7.944;2023-09-19T14:13:41;23.60;78.80
16247;DHT22;8231;50.866;7.944;2023-09-19T14:16:14;23.60;81.30
16247;DHT22;8231;50.866;7.944;2023-09-19T14:18:42;23.50;81.50
16247;DHT22;8231;50.866;7.944;2023-09-19T14:21:10;23.40;81.20
16247;DHT22;8231;50.866;7.944;2023-09-19T14:23:40;23.20;82.90
16247;DHT22;8231;50.866;7.944;2023-09-19T14:26:10;23.10;81.80
16247;DHT22;8231;50.866;7.944;2023-09-19T14:28:38;23.20;81.80
16247;DHT22;8231;50.866;7.944;2023-09-19T14:31:07;23.20;82.00
16247;DHT22;8231;50.866;7.944;2023-09-19T14:33:36;23.10;82.60
16247;DHT22;8231;50.866;7.944;2023-09-19T14:36:05;23.20;83.50
16247;DHT22;8231;50.866;7.944;2023-09-19T14:38:34;23.00;84.40
16247;DHT22;8231;50.866;7.944;2023-09-19T14:41:04;22.80;83.40
16247;DHT22;8231;50.866;7.944;2023-09-19T14:43:33;22.50;84.10
16247;DHT22;8231;50.866;7.944;2023-09-19T14:46:06;22.50;84.70
16247;DHT22;8231;50.866;7.944;2023-09-19T14:48:37;22.30;84.60
16247;DHT22;8231;50.866;7.944;2023-09-19T14:51:06;22.20;84.90
16247;DHT22;8231;50.866;7.944;2023-09-19T14:53:36;22.10;85.90
16247;DHT22;8231;50.866;7.944;2023-09-19T14:56:08;22.10;86.70
16247;DHT22;8231;50.866;7.944;2023-09-19T14:58:36;22.10;86.90
16247;DHT22;8231;50.866;7.944;2023-09-19T15:01:07;22.10;86.70
16247;DHT22;8231;50.866;7.944;2023-09-19T15:03:38;22.10;87.50
16247;DHT22;8231;50.866;7.944;2023-09-19T15:06:08;22.10;89.10
16247;DHT22;8231;50.866;7.944;2023-09-19T15:08:37;21.90;88.10
16247;DHT22;8231;50.866;7.944;2023-09-19T15:11:09;21.80;88.10
16247;DHT22;8231;50.866;7.944;2023-09-19T15:13:39;21.70;86.60
16247;DHT22;8231;50.866;7.944;2023-09-19T15:16:08;21.50;88.10
16247;DHT22;8231;50.866;7.944;2023-09-19T15:18:37;21.50;88.50
16247;DHT22;8231;50.866;7.944;2023-09-19T15:21:07;21.30;88.90
16247;DHT22;8231;50.866;7.944;2023-09-19T15:23:37;21.30;89.10
16247;DHT22;8231;50.866;7.944;2023-09-19T15:26:06;21.30;90.00
16247;DHT22;8231;50.866;7.944;2023-09-19T15:28:36;21.30;90.30
16247;DHT22;8231;50.866;7.944;2023-09-19T15:31:06;21.20;90.60
16247;DHT22;8231;50.866;7.944;2023-09-19T15:33:35;21.00;90.10
16247;DHT22;8231;50.866;7.944;2023-09-19T15:36:06;20.90;90.10
16247;DHT22;8231;50.866;7.944;2023-09-19T15:38:57;20.70;90.70
16247;DHT22;8231;50.866;7.944;2023-09-19T15:41:27;20.70;90.80
16247;DHT22;8231;50.866;7.944;2023-09-19T15:43:58;20.70;90.70
16247;DHT22;8231;50.866;7.944;2023-09-19T15:46:28;20.70;90.80
16247;DHT22;8231;50.866;7.944;2023-09-19T15:48:57;20.50;90.90
16247;DHT22;8231;50.866;7.944;2023-09-19T15:51:25;20.50;91.00
16247;DHT22;8231;50.866;7.944;2023-09-19T15:53:55;20.50;91.20
16247;DHT22;8231;50.866;7.944;2023-09-19T15:56:24;20.40;91.70
16247;DHT22;8231;50.866;7.944;2023-09-19T15:58:54;20.40;92.00
16247;DHT22;8231;50.866;7.944;2023-09-19T16:01:24;20.40;92.20
16247;DHT22;8231;50.866;7.944;2023-09-19T16:03:53;20.30;92.10
16247;DHT22;8231;50.866;7.944;2023-09-19T16:06:24;20.10;91.40
16247;DHT22;8231;50.866;7.944;2023-09-19T16:08:54;20.00;91.90
16247;DHT22;8231;50.866;7.944;2023-09-19T16:11:22;19.90;92.00
16247;DHT22;8231;50.866;7.944;2023-09-19T16:13:51;19.80;92.10
16247;DHT22;8231;50.866;7.944;2023-09-19T16:16:21;19.60;92.30
16247;DHT22;8231;50.866;7.944;2023-09-19T16:18:53;19.60;93.10
16247;DHT22;8231;50.866;7.944;2023-09-19T16:21:24;19.50;94.20